Terminal Aerodrome Forecast
Issued by NWS Jackson, MS

Current Version | Previous Version | Text Only | Print | Product List | Glossary On
Versions: 1 2 3 4 5 6 7 8 9 10 11 12 13
000
FTUS44 KMEG 251100
TAFTUP
TAF
KTUP 251120Z 2512/2612 00000KT P6SM SKC
      TEMPO 2512/2514 4SM BR
     FM251400 30005KT P6SM SCT050
     FM260000 00000KT P6SM SKC
      TEMPO 2608/2612 1SM BR=

USA.gov is the U.S. government's official web portal to all federal, state and local government web resources and services.